Portada
METAR-TAF:

METAR-TAF

Aeroports :

Weipa, Austràlia

latitud: 12-40-43S, longitud: 141-55-31E, altitud: 19 m

Observació

L'informe es va fer fa 46 minuts, a les 14:00 UTC
Vent 5 kt del Est
Temperatura 23°C
Humitat 89%
Pressió 1012 hPa
Visibilitat 10 km o més
Cel ennuvolat a una alçada de 1900 ft

METAR: YBWP 161400Z AUTO 09005KT 9999 // BKN019 23/21 Q1012

Hora: 00:46 (14:46 UTC)


TAF: manca

Observacions i pronòstics meteorològics de més de 4000 aeroports (METAR i TAF).

Les estacions disponibles són els punts grocs i vermells al mapa.

Posi el ratolí al punt desitjat per veure el nom de l'estació.

Feu clic per veure les observacions i els pronòstics meteorològics.

Per canviar el mapa: feu clic els botons verds amb una creu de color negre per apropar; al botó verd amb un guió per allunyar la imatge; o en les fletxes verdes per a mapes adjacents.


METAR-TAF: